Time;durP1;ratioP1;P1;durP2;ratioP2;P2;SDS_P1;SDS_P2;PMS_P1;PMS_P2;Temp;Humidity;BMP_temperature;BMP_pressure;BME280_temperature;BME280_humidity;BME280_pressure;Samples;Min_cycle;Max_cycle;Signal;HPM_P1;HPM_P2
2023/04/30 00:02:08;;;;;;;;;;;17.80;99.90;;;;;;5073133;28;19915;-69
2023/04/30 00:04:35;;;;;;;;;;;17.90;99.90;;;;;;5078034;28;19908;-70
2023/04/30 00:07:02;;;;;;;;;;;18.00;99.90;;;;;;5079180;28;19917;-71
2023/04/30 00:09:29;;;;;;;;;;;17.90;99.90;;;;;;5079643;28;19920;-70
2023/04/30 00:11:56;;;;;;;;;;;18.10;99.90;;;;;;5077627;28;20284;-70
2023/04/30 00:14:22;;;;;;;;;;;18.20;99.90;;;;;;5078755;28;19912;-70
2023/04/30 00:16:49;;;;;;;;;;;18.40;99.90;;;;;;5077345;28;19908;-70
2023/04/30 00:19:16;;;;;;;;;;;18.40;99.90;;;;;;5079274;28;20395;-69
2023/04/30 00:21:42;;;;;;;;;;;18.40;99.90;;;;;;5076319;28;20840;-70
2023/04/30 00:24:09;;;;;;;;;;;18.10;99.90;;;;;;5079180;28;19912;-71
2023/04/30 00:26:35;;;;;;;;;;;17.90;99.90;;;;;;5078418;28;19904;-70
2023/04/30 00:29:02;;;;;;;;;;;17.90;99.90;;;;;;5079026;28;20392;-70
2023/04/30 00:31:29;;;;;;;;;;;17.90;99.90;;;;;;5078979;28;20306;-70
2023/04/30 00:33:56;;;;;;;;;;;17.90;99.90;;;;;;5075743;28;19909;-70
2023/04/30 00:36:23;;;;;;;;;;;18.00;99.90;;;;;;5076966;28;19961;-70
2023/04/30 00:38:49;;;;;;;;;;;18.10;99.90;;;;;;5075827;28;19908;-68
2023/04/30 00:41:16;;;;;;;;;;;18.10;99.90;;;;;;5059400;28;19920;-69
2023/04/30 00:43:43;;;;;;;;;;;18.20;99.90;;;;;;5076108;28;19931;-71
2023/04/30 00:46:09;;;;;;;;;;;18.40;99.90;;;;;;5077804;28;19908;-69
2023/04/30 00:48:36;;;;;;;;;;;18.40;99.90;;;;;;5083902;28;20368;-70
2023/04/30 00:51:03;;;;;;;;;;;18.50;99.90;;;;;;5078944;28;20527;-69
2023/04/30 00:53:30;;;;;;;;;;;18.60;99.90;;;;;;5098566;28;19908;-68
2023/04/30 00:56:00;;;;;;;;;;;18.60;99.90;;;;;;5095956;28;20210;-69
2023/04/30 00:58:27;;;;;;;;;;;18.70;99.90;;;;;;5098820;28;19908;-70
2023/04/30 01:00:53;;;;;;;;;;;18.80;99.90;;;;;;5079066;28;19977;-67
2023/04/30 01:03:21;;;;;;;;;;;18.80;99.90;;;;;;5098503;28;20570;-69
2023/04/30 01:05:49;;;;;;;;;;;18.90;99.90;;;;;;5097301;28;19973;-69
2023/04/30 01:08:15;;;;;;;;;;;19.10;99.90;;;;;;5078587;28;19912;-73
2023/04/30 01:10:48;;;;;;;;;;;19.30;99.90;;;;;;5078156;28;19916;-69
2023/04/30 01:13:25;;;;;;;;;;;19.60;99.90;;;;;;5078267;28;19953;-69
2023/04/30 01:15:58;;;;;;;;;;;19.70;99.90;;;;;;5076025;28;19965;-69
2023/04/30 01:18:27;;;;;;;;;;;19.60;99.90;;;;;;5078454;28;19961;-67
2023/04/30 01:21:04;;;;;;;;;;;19.70;99.90;;;;;;5075846;28;19908;-69
2023/04/30 01:23:31;;;;;;;;;;;19.90;99.90;;;;;;5077554;28;19914;-68
2023/04/30 01:26:15;;;;;;;;;;;19.80;99.90;;;;;;5075508;28;19934;-68
2023/04/30 01:28:43;;;;;;;;;;;19.90;99.90;;;;;;5076090;28;19931;-67
2023/04/30 01:31:14;;;;;;;;;;;19.90;99.90;;;;;;5057005;28;19908;-68
2023/04/30 01:33:40;;;;;;;;;;;20.00;99.90;;;;;;5077554;28;19970;-68
2023/04/30 01:36:45;;;;;;;;;;;19.90;99.90;;;;;;5074843;28;19908;-69
2023/04/30 01:39:18;;;;;;;;;;;19.90;99.90;;;;;;4974783;28;20017;-68
2023/04/30 01:41:54;;;;;;;;;;;19.80;99.90;;;;;;4976124;28;19929;-68
2023/04/30 01:44:39;;;;;;;;;;;19.70;99.90;;;;;;5036410;28;19912;-68
2023/04/30 01:47:14;;;;;;;;;;;19.50;99.90;;;;;;5074501;28;20230;-68
2023/04/30 01:49:59;;;;;;;;;;;19.30;99.90;;;;;;5075903;28;19927;-69
2023/04/30 01:52:39;;;;;;;;;;;19.40;99.90;;;;;;5057272;28;19943;-68
2023/04/30 01:55:27;;;;;;;;;;;19.50;99.90;;;;;;5075206;28;20446;-69
2023/04/30 01:57:59;;;;;;;;;;;19.30;99.90;;;;;;5075567;28;19953;-70
2023/04/30 02:00:27;;;;;;;;;;;19.30;99.90;;;;;;5077124;28;19908;-70
2023/04/30 02:02:53;;;;;;;;;;;19.30;99.90;;;;;;5076221;28;19962;-68
2023/04/30 02:05:20;;;;;;;;;;;19.10;99.90;;;;;;5075770;28;19912;-68
2023/04/30 02:07:48;;;;;;;;;;;19.00;99.90;;;;;;5076969;28;20529;-68
2023/04/30 02:10:16;;;;;;;;;;;18.90;99.90;;;;;;5075069;28;19962;-66
2023/04/30 02:12:42;;;;;;;;;;;18.90;99.90;;;;;;5076736;28;19908;-69
2023/04/30 02:15:09;;;;;;;;;;;18.80;99.90;;;;;;5075291;28;19908;-67
2023/04/30 02:17:36;;;;;;;;;;;18.80;99.90;;;;;;5086125;28;20942;-69
2023/04/30 02:20:03;;;;;;;;;;;18.80;99.90;;;;;;5095224;28;19985;-68
2023/04/30 02:22:30;;;;;;;;;;;19.00;99.90;;;;;;5096918;28;20310;-69
2023/04/30 02:24:56;;;;;;;;;;;19.20;99.90;;;;;;5095418;28;19912;-69
2023/04/30 02:27:24;;;;;;;;;;;19.40;99.90;;;;;;5096490;28;19930;-69
2023/04/30 02:29:51;;;;;;;;;;;19.50;99.90;;;;;;5096915;28;19922;-68
2023/04/30 02:32:18;;;;;;;;;;;19.90;99.90;;;;;;5094659;28;19957;-68
2023/04/30 02:34:45;;;;;;;;;;;20.50;99.90;;;;;;5096926;28;19907;-69
2023/04/30 02:37:11;;;;;;;;;;;21.40;99.90;;;;;;5094918;28;20376;-70
2023/04/30 02:39:38;;;;;;;;;;;22.40;99.90;;;;;;5097112;28;20178;-68
2023/04/30 02:42:05;;;;;;;;;;;23.20;98.80;;;;;;5094939;28;19919;-69
2023/04/30 02:44:32;;;;;;;;;;;24.20;96.70;;;;;;5096418;28;19919;-69
2023/04/30 02:46:59;;;;;;;;;;;24.30;96.60;;;;;;5096745;28;19908;-68
2023/04/30 02:49:26;;;;;;;;;;;24.50;95.60;;;;;;5096504;28;19916;-68
2023/04/30 02:51:53;;;;;;;;;;;24.80;95.00;;;;;;5100035;28;19943;-67
2023/04/30 02:54:19;;;;;;;;;;;24.60;95.50;;;;;;5098759;28;20119;-68
2023/04/30 02:56:46;;;;;;;;;;;24.60;95.80;;;;;;5101024;28;20101;-68
2023/04/30 02:59:13;;;;;;;;;;;24.70;95.80;;;;;;5099100;28;19908;-70
2023/04/30 03:01:40;;;;;;;;;;;25.30;94.70;;;;;;5100638;28;20399;-68
2023/04/30 03:04:06;;;;;;;;;;;25.60;94.10;;;;;;5098794;28;20181;-68
2023/04/30 03:06:33;;;;;;;;;;;26.10;94.10;;;;;;5100715;28;20330;-68
2023/04/30 03:09:00;;;;;;;;;;;27.50;91.80;;;;;;5100996;28;19916;-68
2023/04/30 03:11:27;;;;;;;;;;;28.20;90.00;;;;;;5100274;28;19953;-67
2023/04/30 03:13:53;;;;;;;;;;;27.80;90.30;;;;;;5100108;28;19999;-67
2023/04/30 03:16:21;;;;;;;;;;;28.00;88.80;;;;;;5098806;28;20296;-69
2023/04/30 03:18:48;;;;;;;;;;;28.70;87.90;;;;;;5100825;28;19961;-69
2023/04/30 03:21:14;;;;;;;;;;;29.30;84.60;;;;;;5098260;28;20268;-68
2023/04/30 03:23:41;;;;;;;;;;;29.00;84.50;;;;;;5087120;28;20291;-69
2023/04/30 03:26:08;;;;;;;;;;;28.60;86.00;;;;;;5078103;28;19916;-69
2023/04/30 03:28:34;;;;;;;;;;;27.70;86.80;;;;;;5062201;28;19955;-69
2023/04/30 03:31:04;;;;;;;;;;;26.40;89.00;;;;;;5080329;28;19908;-67
2023/04/30 03:33:31;;;;;;;;;;;26.30;90.60;;;;;;5078863;28;20241;-68
2023/04/30 03:35:58;;;;;;;;;;;27.30;89.20;;;;;;5079556;28;19947;-69
2023/04/30 03:38:25;;;;;;;;;;;29.00;87.20;;;;;;5077997;28;19931;-69
2023/04/30 03:40:51;;;;;;;;;;;30.40;81.70;;;;;;5079043;28;19920;-67
2023/04/30 03:43:18;;;;;;;;;;;29.50;80.70;;;;;;5078081;28;20338;-68
2023/04/30 03:45:45;;;;;;;;;;;28.10;84.30;;;;;;5079556;28;19995;-67
2023/04/30 03:48:11;;;;;;;;;;;26.70;87.60;;;;;;5077679;28;19918;-69
2023/04/30 03:50:38;;;;;;;;;;;25.40;90.40;;;;;;5080438;28;19924;-69
2023/04/30 03:53:05;;;;;;;;;;;25.90;90.70;;;;;;5080562;28;20364;-69
2023/04/30 03:55:32;;;;;;;;;;;27.20;88.10;;;;;;5059585;28;20749;-70
2023/04/30 03:57:59;;;;;;;;;;;28.40;84.60;;;;;;5079557;28;19908;-70
2023/04/30 04:00:25;;;;;;;;;;;29.60;81.30;;;;;;5077649;28;19908;-70
2023/04/30 04:02:52;;;;;;;;;;;30.30;80.50;;;;;;5079400;28;20439;-69
2023/04/30 04:05:19;;;;;;;;;;;31.00;77.50;;;;;;5077188;28;19908;-69
2023/04/30 04:07:45;;;;;;;;;;;32.00;75.50;;;;;;5079099;28;19940;-70
2023/04/30 04:10:12;;;;;;;;;;;32.60;73.40;;;;;;5078323;28;20345;-70
2023/04/30 04:12:39;;;;;;;;;;;32.90;72.40;;;;;;5078593;28;19908;-68
2023/04/30 04:15:06;;;;;;;;;;;32.40;71.60;;;;;;5078903;28;19915;-70
2023/04/30 04:17:32;;;;;;;;;;;30.90;73.70;;;;;;5056856;28;20002;-68
2023/04/30 04:19:59;;;;;;;;;;;29.00;76.80;;;;;;5061889;28;19908;-69
2023/04/30 04:22:26;;;;;;;;;;;27.20;82.30;;;;;;5077131;28;19908;-68
2023/04/30 04:24:54;;;;;;;;;;;25.80;83.70;;;;;;5078922;28;19919;-68
2023/04/30 04:27:20;;;;;;;;;;;24.60;87.10;;;;;;5077597;28;19912;-68
2023/04/30 04:29:47;;;;;;;;;;;24.00;89.50;;;;;;5078641;28;20000;-68
2023/04/30 04:32:14;;;;;;;;;;;23.80;91.00;;;;;;5079112;28;20026;-68
2023/04/30 04:34:42;;;;;;;;;;;23.90;91.10;;;;;;5077696;28;19918;-69
2023/04/30 04:37:09;;;;;;;;;;;25.00;90.10;;;;;;5079320;28;19977;-68
2023/04/30 04:39:36;;;;;;;;;;;26.60;86.10;;;;;;5077343;28;19916;-70
2023/04/30 04:42:03;;;;;;;;;;;28.50;82.30;;;;;;5079173;28;19920;-67
2023/04/30 04:44:31;;;;;;;;;;;30.00;77.40;;;;;;5076356;28;19908;-71
2023/04/30 04:46:57;;;;;;;;;;;31.10;75.90;;;;;;5078715;28;19912;-70
2023/04/30 04:49:24;;;;;;;;;;;31.60;73.50;;;;;;5058222;28;19922;-69
2023/04/30 04:51:51;;;;;;;;;;;31.10;72.30;;;;;;5078727;28;19951;-70
2023/04/30 04:54:17;;;;;;;;;;;30.60;73.50;;;;;;5077861;28;19909;-70
2023/04/30 04:56:44;;;;;;;;;;;30.30;74.80;;;;;;5077524;28;20552;-67
2023/04/30 04:59:11;;;;;;;;;;;29.70;74.60;;;;;;5078656;28;19904;-69
2023/04/30 05:01:37;;;;;;;;;;;29.20;76.00;;;;;;5076489;28;20363;-68
2023/04/30 05:04:04;;;;;;;;;;;29.10;75.70;;;;;;5078174;28;19916;-69
2023/04/30 05:06:31;;;;;;;;;;;29.40;75.00;;;;;;5076478;28;19994;-68
2023/04/30 05:08:57;;;;;;;;;;;30.10;72.90;;;;;;5077734;28;19930;-68
2023/04/30 05:11:24;;;;;;;;;;;30.10;72.70;;;;;;5077110;28;19908;-68
2023/04/30 05:13:50;;;;;;;;;;;29.90;73.50;;;;;;5077753;28;19961;-69
2023/04/30 05:16:17;;;;;;;;;;;29.30;74.40;;;;;;5078267;28;19919;-68
2023/04/30 05:18:44;;;;;;;;;;;28.20;76.40;;;;;;5076295;28;19904;-69
2023/04/30 05:21:10;;;;;;;;;;;27.30;78.90;;;;;;5077422;28;19942;-69
2023/04/30 05:23:37;;;;;;;;;;;26.30;80.50;;;;;;5076200;28;19908;-67
2023/04/30 05:26:04;;;;;;;;;;;25.40;82.70;;;;;;5077971;28;20545;-68
2023/04/30 05:28:30;;;;;;;;;;;24.70;84.30;;;;;;5075567;28;19912;-68
2023/04/30 05:30:57;;;;;;;;;;;24.20;86.90;;;;;;5078279;28;20006;-68
2023/04/30 05:33:24;;;;;;;;;;;24.70;87.50;;;;;;5077846;28;19951;-68
2023/04/30 05:35:50;;;;;;;;;;;25.00;83.50;;;;;;5076994;28;19908;-68
2023/04/30 05:38:17;;;;;;;;;;;24.70;83.70;;;;;;5059158;28;19915;-68
2023/04/30 05:40:44;;;;;;;;;;;24.70;86.10;;;;;;5075338;28;19986;-69
2023/04/30 05:43:11;;;;;;;;;;;25.40;85.00;;;;;;5077355;28;19916;-68
2023/04/30 05:45:37;;;;;;;;;;;26.20;80.70;;;;;;5075611;28;19961;-69
2023/04/30 05:48:04;;;;;;;;;;;26.50;81.10;;;;;;5076820;28;20257;-70
2023/04/30 05:50:31;;;;;;;;;;;26.90;79.80;;;;;;5076397;28;19908;-69
2023/04/30 05:52:57;;;;;;;;;;;27.10;79.60;;;;;;5077191;28;19908;-69
2023/04/30 05:55:24;;;;;;;;;;;27.20;79.80;;;;;;5077773;28;19904;-68
2023/04/30 05:57:50;;;;;;;;;;;27.60;79.00;;;;;;5075276;28;19926;-69
2023/04/30 06:00:17;;;;;;;;;;;28.70;76.70;;;;;;5077215;28;19912;-69
2023/04/30 06:02:44;;;;;;;;;;;29.40;74.90;;;;;;5054819;28;19908;-70
2023/04/30 06:05:10;;;;;;;;;;;29.30;74.50;;;;;;5076650;28;19974;-67
2023/04/30 06:07:37;;;;;;;;;;;29.50;74.60;;;;;;5075144;28;19989;-69
2023/04/30 06:10:04;;;;;;;;;;;30.00;74.30;;;;;;5076910;28;20421;-68
2023/04/30 06:12:31;;;;;;;;;;;30.30;73.80;;;;;;5076198;28;20289;-69
2023/04/30 06:14:57;;;;;;;;;;;30.80;72.30;;;;;;5056193;28;20396;-67
2023/04/30 06:17:24;;;;;;;;;;;31.00;71.90;;;;;;5057045;28;19908;-67
2023/04/30 06:19:51;;;;;;;;;;;30.60;71.40;;;;;;5054864;28;20341;-68
2023/04/30 06:22:17;;;;;;;;;;;29.50;72.30;;;;;;5056539;28;20450;-69
2023/04/30 06:24:44;;;;;;;;;;;28.30;75.50;;;;;;5072975;28;20387;-68
2023/04/30 06:27:11;;;;;;;;;;;27.30;76.80;;;;;;5076677;28;19912;-69
2023/04/30 06:29:37;;;;;;;;;;;26.20;79.40;;;;;;5075877;28;19946;-69
2023/04/30 06:32:04;;;;;;;;;;;25.10;80.80;;;;;;5077012;28;19969;-69
2023/04/30 06:34:31;;;;;;;;;;;24.30;85.20;;;;;;5077440;28;19943;-68
2023/04/30 06:36:57;;;;;;;;;;;23.50;87.20;;;;;;5056863;28;19915;-69
2023/04/30 06:39:24;;;;;;;;;;;22.80;89.40;;;;;;5076839;28;19904;-67
2023/04/30 06:41:51;;;;;;;;;;;22.20;90.30;;;;;;5074916;28;19920;-69
2023/04/30 06:44:18;;;;;;;;;;;21.60;90.80;;;;;;5076611;28;19908;-69
2023/04/30 06:46:44;;;;;;;;;;;21.20;91.70;;;;;;5074621;28;19916;-69
2023/04/30 06:49:11;;;;;;;;;;;20.80;92.60;;;;;;5076769;28;19916;-70
2023/04/30 06:51:38;;;;;;;;;;;20.50;93.30;;;;;;5076626;28;19915;-70
2023/04/30 06:54:05;;;;;;;;;;;20.20;93.70;;;;;;5076521;28;19908;-68
2023/04/30 06:56:31;;;;;;;;;;;20.00;94.70;;;;;;5076743;28;19998;-69
2023/04/30 06:58:58;;;;;;;;;;;19.90;95.00;;;;;;5074475;28;19908;-70
2023/04/30 07:01:24;;;;;;;;;;;19.70;95.60;;;;;;5079234;28;20319;-69
2023/04/30 07:03:53;;;;;;;;;;;19.50;95.80;;;;;;5095049;28;20007;-69
2023/04/30 07:06:20;;;;;;;;;;;19.40;96.30;;;;;;5084879;28;19916;-68
2023/04/30 07:08:47;;;;;;;;;;;19.30;96.60;;;;;;5072957;28;19912;-68
2023/04/30 07:11:14;;;;;;;;;;;19.20;97.40;;;;;;5076151;28;19908;-68
2023/04/30 07:13:41;;;;;;;;;;;19.10;97.90;;;;;;5076618;28;19909;-69
2023/04/30 07:16:09;;;;;;;;;;;19.00;97.90;;;;;;5075414;28;19908;-68
2023/04/30 07:18:36;;;;;;;;;;;19.00;98.60;;;;;;5076987;28;20348;-67
2023/04/30 07:21:03;;;;;;;;;;;18.90;98.70;;;;;;5073758;28;19908;-68
2023/04/30 07:23:30;;;;;;;;;;;18.80;98.80;;;;;;5076544;28;20007;-69
2023/04/30 07:25:56;;;;;;;;;;;18.80;99.20;;;;;;5076993;28;20358;-68
2023/04/30 07:28:23;;;;;;;;;;;18.80;99.50;;;;;;5074663;28;20091;-67
2023/04/30 07:30:50;;;;;;;;;;;18.70;99.90;;;;;;5076549;28;19977;-67
2023/04/30 07:33:16;;;;;;;;;;;18.80;99.90;;;;;;5073247;28;20183;-67
2023/04/30 07:35:43;;;;;;;;;;;18.70;99.90;;;;;;5076393;28;19923;-68
2023/04/30 07:38:10;;;;;;;;;;;18.60;99.90;;;;;;5077807;28;19916;-68
2023/04/30 07:40:36;;;;;;;;;;;18.70;99.90;;;;;;5078783;28;20126;-68
2023/04/30 07:43:03;;;;;;;;;;;18.70;99.90;;;;;;5079246;28;19915;-68
2023/04/30 07:45:30;;;;;;;;;;;18.60;99.90;;;;;;5078914;28;20254;-69
2023/04/30 07:47:57;;;;;;;;;;;18.70;99.90;;;;;;5081494;28;19947;-68
2023/04/30 07:50:23;;;;;;;;;;;18.60;99.90;;;;;;5075775;28;19919;-68
2023/04/30 07:52:50;;;;;;;;;;;18.60;99.90;;;;;;5080447;28;19931;-69
2023/04/30 07:55:17;;;;;;;;;;;18.60;99.90;;;;;;5077457;28;20422;-69
2023/04/30 07:57:43;;;;;;;;;;;18.60;99.90;;;;;;5079646;28;19977;-68
2023/04/30 08:00:10;;;;;;;;;;;18.50;99.90;;;;;;5077593;28;19908;-69
2023/04/30 08:02:37;;;;;;;;;;;18.40;99.90;;;;;;5078803;28;20323;-69
2023/04/30 08:05:04;;;;;;;;;;;18.30;99.90;;;;;;5079664;28;19908;-69
2023/04/30 08:07:31;;;;;;;;;;;18.30;99.90;;;;;;5077845;28;19909;-69
2023/04/30 08:09:57;;;;;;;;;;;18.20;99.90;;;;;;5079940;28;19916;-69
2023/04/30 08:12:24;;;;;;;;;;;18.10;99.90;;;;;;5076448;28;19919;-70
2023/04/30 08:14:58;;;;;;;;;;;18.00;99.90;;;;;;5080044;28;19915;-68
2023/04/30 08:17:25;;;;;;;;;;;17.90;99.90;;;;;;5076128;28;20043;-69
2023/04/30 08:19:51;;;;;;;;;;;17.90;99.90;;;;;;5080006;28;19909;-69
2023/04/30 08:22:18;;;;;;;;;;;17.80;99.90;;;;;;5077235;28;19908;-69
2023/04/30 08:24:45;;;;;;;;;;;17.70;99.90;;;;;;5078232;28;19908;-68
2023/04/30 08:27:11;;;;;;;;;;;17.70;99.90;;;;;;5077670;28;20050;-69
2023/04/30 08:29:38;;;;;;;;;;;17.60;99.90;;;;;;5078539;28;20311;-69
2023/04/30 08:32:05;;;;;;;;;;;17.60;99.90;;;;;;5079876;28;19908;-68
2023/04/30 08:34:31;;;;;;;;;;;17.50;99.90;;;;;;5075882;28;19916;-69
2023/04/30 08:36:59;;;;;;;;;;;17.50;99.90;;;;;;5079598;28;19912;-70
2023/04/30 08:39:25;;;;;;;;;;;17.40;99.90;;;;;;5076571;28;20003;-67
2023/04/30 08:41:56;;;;;;;;;;;17.30;99.90;;;;;;5079048;28;19928;-69
2023/04/30 08:44:22;;;;;;;;;;;17.20;99.90;;;;;;5077288;28;19916;-70
2023/04/30 08:46:57;;;;;;;;;;;17.10;99.90;;;;;;5078185;28;19908;-69
2023/04/30 08:49:24;;;;;;;;;;;17.10;99.90;;;;;;5075578;28;19916;-70
2023/04/30 08:51:51;;;;;;;;;;;17.10;99.90;;;;;;5077958;28;19908;-69
2023/04/30 08:54:18;;;;;;;;;;;17.00;99.90;;;;;;5076842;28;19915;-70
2023/04/30 08:56:45;;;;;;;;;;;17.00;99.90;;;;;;5077734;28;20180;-70
2023/04/30 08:59:11;;;;;;;;;;;16.90;99.90;;;;;;5078867;28;19915;-69
2023/04/30 09:01:38;;;;;;;;;;;16.80;99.90;;;;;;5075910;28;20600;-69
2023/04/30 09:04:06;;;;;;;;;;;16.90;99.90;;;;;;5078926;28;20125;-68
2023/04/30 09:06:32;;;;;;;;;;;16.80;99.90;;;;;;5075214;28;19912;-69
2023/04/30 09:09:10;;;;;;;;;;;16.70;99.90;;;;;;5078776;28;19920;-70
2023/04/30 09:11:37;;;;;;;;;;;16.70;99.90;;;;;;5075313;28;19908;-69
2023/04/30 09:14:03;;;;;;;;;;;16.60;99.90;;;;;;5078862;28;19985;-69
2023/04/30 09:16:44;;;;;;;;;;;16.70;99.90;;;;;;5075854;28;19908;-67
2023/04/30 09:19:30;;;;;;;;;;;16.50;99.90;;;;;;5078925;28;19908;-68
2023/04/30 09:21:57;;;;;;;;;;;16.60;99.90;;;;;;5077793;28;20102;-67
2023/04/30 09:24:24;;;;;;;;;;;16.50;99.90;;;;;;5076039;28;19908;-67
2023/04/30 09:26:51;;;;;;;;;;;16.50;99.90;;;;;;5076684;28;20143;-69
2023/04/30 09:29:17;;;;;;;;;;;16.50;99.90;;;;;;5077716;28;19918;-68
2023/04/30 09:31:47;;;;;;;;;;;16.50;99.90;;;;;;5075736;28;20002;-68
2023/04/30 09:34:14;;;;;;;;;;;16.40;99.90;;;;;;5078511;28;19960;-67
2023/04/30 09:36:55;;;;;;;;;;;16.30;99.90;;;;;;5074037;28;19904;-68
2023/04/30 09:39:22;;;;;;;;;;;16.30;99.90;;;;;;5076846;28;20281;-68
2023/04/30 09:41:50;;;;;;;;;;;16.30;99.90;;;;;;5076208;28;19920;-68
2023/04/30 09:44:27;;;;;;;;;;;16.30;99.90;;;;;;5078341;28;19908;-68
2023/04/30 09:46:55;;;;;;;;;;;16.30;99.90;;;;;;5076945;28;19908;-68
2023/04/30 09:49:22;;;;;;;;;;;16.20;99.90;;;;;;5077623;28;19916;-68
2023/04/30 09:51:58;;;;;;;;;;;16.20;99.90;;;;;;5075685;28;19909;-69
2023/04/30 09:54:28;;;;;;;;;;;16.20;99.90;;;;;;5076936;28;20373;-67
2023/04/30 09:56:56;;;;;;;;;;;16.10;99.90;;;;;;5076368;28;19915;-68
2023/04/30 09:59:27;;;;;;;;;;;16.10;99.90;;;;;;5077015;28;19955;-68
2023/04/30 10:01:55;;;;;;;;;;;16.10;99.90;;;;;;5076346;28;19909;-69
2023/04/30 10:04:21;;;;;;;;;;;16.00;99.90;;;;;;5077797;28;19957;-69
2023/04/30 10:06:49;;;;;;;;;;;16.00;99.90;;;;;;5074468;28;19908;-68
2023/04/30 10:09:16;;;;;;;;;;;15.90;99.90;;;;;;5077629;28;19999;-68
2023/04/30 10:11:44;;;;;;;;;;;15.90;99.90;;;;;;5074138;28;20007;-68
2023/04/30 10:14:11;;;;;;;;;;;15.80;99.90;;;;;;5077761;28;19947;-68
2023/04/30 10:16:56;;;;;;;;;;;15.80;99.90;;;;;;5075539;28;20284;-70
2023/04/30 10:19:24;;;;;;;;;;;15.80;99.90;;;;;;5077318;28;19912;-67
2023/04/30 10:21:50;;;;;;;;;;;15.80;99.90;;;;;;5075295;28;19961;-68
2023/04/30 10:24:18;;;;;;;;;;;15.80;99.90;;;;;;5075091;28;19912;-68
2023/04/30 10:26:48;;;;;;;;;;;15.70;99.90;;;;;;5076245;28;19954;-68
2023/04/30 10:29:15;;;;;;;;;;;15.70;99.90;;;;;;5076160;28;20291;-69
2023/04/30 10:31:45;;;;;;;;;;;15.70;99.90;;;;;;5076881;28;19912;-69
2023/04/30 10:34:35;;;;;;;;;;;15.70;99.90;;;;;;5074882;28;20318;-68
2023/04/30 10:37:09;;;;;;;;;;;15.70;99.90;;;;;;5055903;28;20002;-68
2023/04/30 10:39:37;;;;;;;;;;;15.60;99.90;;;;;;5079370;28;19961;-68
2023/04/30 10:42:05;;;;;;;;;;;15.60;99.90;;;;;;5075130;28;20270;-69
2023/04/30 10:44:33;;;;;;;;;;;15.70;99.90;;;;;;5078237;28;19912;-68
2023/04/30 10:47:03;;;;;;;;;;;15.60;99.90;;;;;;5077958;28;19961;-68
2023/04/30 10:49:30;;;;;;;;;;;15.50;99.90;;;;;;5078523;28;19939;-69
2023/04/30 10:52:02;;;;;;;;;;;15.50;99.90;;;;;;5077390;28;20010;-68
2023/04/30 10:54:30;;;;;;;;;;;15.50;99.90;;;;;;5078254;28;19923;-69
2023/04/30 10:57:11;;;;;;;;;;;15.50;99.90;;;;;;5077844;28;19915;-68
2023/04/30 10:59:42;;;;;;;;;;;15.50;99.90;;;;;;5079067;28;19909;-69
2023/04/30 11:02:09;;;;;;;;;;;15.40;99.90;;;;;;5076280;28;19908;-69
2023/04/30 11:04:56;;;;;;;;;;;15.40;99.90;;;;;;5078689;28;19908;-68
2023/04/30 11:07:27;;;;;;;;;;;15.40;99.90;;;;;;5074597;28;19913;-68
2023/04/30 11:09:56;;;;;;;;;;;15.30;99.90;;;;;;5077182;28;19917;-69
2023/04/30 11:12:27;;;;;;;;;;;15.30;99.90;;;;;;5076505;28;19915;-69
2023/04/30 11:15:12;;;;;;;;;;;15.30;99.90;;;;;;5080631;28;19908;-68
2023/04/30 11:17:39;;;;;;;;;;;15.30;99.90;;;;;;5077340;28;20341;-68
2023/04/30 11:20:06;;;;;;;;;;;15.20;99.90;;;;;;5081113;28;19908;-68
2023/04/30 11:22:35;;;;;;;;;;;15.20;99.90;;;;;;5077725;28;19919;-69
2023/04/30 11:25:02;;;;;;;;;;;15.10;99.90;;;;;;5082274;28;19916;-67
2023/04/30 11:27:30;;;;;;;;;;;15.10;99.90;;;;;;5077951;28;19912;-68
2023/04/30 11:29:57;;;;;;;;;;;15.00;99.90;;;;;;5080377;28;20369;-69
2023/04/30 11:32:25;;;;;;;;;;;14.90;99.90;;;;;;5079666;28;20009;-69
2023/04/30 11:34:53;;;;;;;;;;;14.80;99.90;;;;;;5080360;28;19919;-69
2023/04/30 11:37:22;;;;;;;;;;;14.80;99.90;;;;;;5080803;28;20381;-69
2023/04/30 11:39:49;;;;;;;;;;;14.80;99.90;;;;;;5078567;28;19912;-68
2023/04/30 11:42:17;;;;;;;;;;;14.70;99.90;;;;;;5079683;28;20392;-68
2023/04/30 11:44:44;;;;;;;;;;;14.70;99.90;;;;;;5076891;28;19908;-67
2023/04/30 11:47:14;;;;;;;;;;;14.60;99.90;;;;;;5080002;28;19908;-68
2023/04/30 11:49:42;;;;;;;;;;;14.60;99.90;;;;;;5077338;28;20023;-69
2023/04/30 11:52:09;;;;;;;;;;;14.60;99.90;;;;;;5081099;28;19939;-68
2023/04/30 11:54:37;;;;;;;;;;;14.50;99.90;;;;;;5077218;28;19954;-69
2023/04/30 11:57:04;;;;;;;;;;;14.60;99.90;;;;;;5080614;28;19908;-68
2023/04/30 11:59:31;;;;;;;;;;;14.50;99.90;;;;;;5077353;28;20022;-69
2023/04/30 12:01:58;;;;;;;;;;;14.50;99.90;;;;;;5080180;28;20011;-69
2023/04/30 12:04:26;;;;;;;;;;;14.40;99.90;;;;;;5079730;28;19983;-69
2023/04/30 12:06:52;;;;;;;;;;;14.30;99.90;;;;;;5077794;28;20007;-68
2023/04/30 12:09:19;;;;;;;;;;;14.40;99.90;;;;;;5079863;28;19963;-69
2023/04/30 12:11:47;;;;;;;;;;;14.30;99.90;;;;;;5076755;28;19940;-68
2023/04/30 12:14:14;;;;;;;;;;;14.30;99.90;;;;;;5079738;28;19908;-69
2023/04/30 12:16:49;;;;;;;;;;;14.30;99.90;;;;;;5077441;28;19908;-67
2023/04/30 12:19:17;;;;;;;;;;;14.30;99.90;;;;;;5080128;28;20007;-68
2023/04/30 12:21:45;;;;;;;;;;;14.30;99.90;;;;;;5077654;28;19960;-67
2023/04/30 12:24:12;;;;;;;;;;;14.30;99.90;;;;;;5080220;28;20392;-69
2023/04/30 12:26:39;;;;;;;;;;;14.20;99.90;;;;;;5076271;28;19908;-67
2023/04/30 12:29:14;;;;;;;;;;;14.20;99.90;;;;;;5079364;28;20273;-67
2023/04/30 12:31:41;;;;;;;;;;;14.20;99.90;;;;;;5076496;28;19915;-69
2023/04/30 12:34:08;;;;;;;;;;;14.10;99.90;;;;;;5079667;28;20033;-69
2023/04/30 12:36:41;;;;;;;;;;;14.10;99.90;;;;;;5077262;28;20007;-70
2023/04/30 12:39:12;;;;;;;;;;;14.10;99.90;;;;;;5079351;28;19908;-67
2023/04/30 12:41:42;;;;;;;;;;;14.10;99.90;;;;;;5076444;28;19920;-67
2023/04/30 12:44:22;;;;;;;;;;;14.00;99.90;;;;;;5078869;28;19915;-67
2023/04/30 12:46:51;;;;;;;;;;;14.00;99.90;;;;;;5076215;28;19953;-67
2023/04/30 12:49:24;;;;;;;;;;;14.10;99.90;;;;;;5079317;28;19969;-68
2023/04/30 12:51:51;;;;;;;;;;;14.00;99.90;;;;;;5075968;28;19908;-69
2023/04/30 12:54:34;;;;;;;;;;;14.00;99.90;;;;;;5079078;28;19908;-68
2023/04/30 12:57:08;;;;;;;;;;;14.00;99.90;;;;;;5077385;28;19908;-67
2023/04/30 12:59:36;;;;;;;;;;;14.00;99.90;;;;;;5078879;28;19908;-69
2023/04/30 13:02:07;;;;;;;;;;;14.00;99.90;;;;;;5077848;28;19912;-68
2023/04/30 13:04:34;;;;;;;;;;;13.90;99.90;;;;;;5078608;28;20260;-67
2023/04/30 13:07:02;;;;;;;;;;;13.90;99.90;;;;;;5077388;28;19916;-68
2023/04/30 13:09:28;;;;;;;;;;;13.90;99.90;;;;;;5078262;28;19916;-68
2023/04/30 13:11:55;;;;;;;;;;;13.80;99.90;;;;;;5075597;28;20069;-68
2023/04/30 13:14:22;;;;;;;;;;;13.80;99.90;;;;;;5079062;28;19947;-68
2023/04/30 13:16:48;;;;;;;;;;;13.80;99.90;;;;;;5075428;28;19908;-68
2023/04/30 13:19:15;;;;;;;;;;;13.80;99.90;;;;;;5079691;28;19912;-69
2023/04/30 13:21:41;;;;;;;;;;;13.80;99.90;;;;;;5077141;28;20327;-68
2023/04/30 13:24:08;;;;;;;;;;;13.80;99.90;;;;;;5078490;28;19907;-67
2023/04/30 13:26:35;;;;;;;;;;;13.80;99.90;;;;;;5078421;28;19919;-67
2023/04/30 13:29:03;;;;;;;;;;;13.70;99.90;;;;;;5075419;28;19916;-67
2023/04/30 13:31:30;;;;;;;;;;;13.70;99.90;;;;;;5079517;28;20329;-67
2023/04/30 13:33:56;;;;;;;;;;;13.60;99.90;;;;;;5074940;28;19991;-69
2023/04/30 13:36:23;;;;;;;;;;;13.60;99.90;;;;;;5078919;28;19908;-68
2023/04/30 13:38:50;;;;;;;;;;;13.60;99.90;;;;;;5074865;28;20353;-69
2023/04/30 13:41:17;;;;;;;;;;;13.60;99.90;;;;;;5078315;28;20015;-68
2023/04/30 13:43:45;;;;;;;;;;;13.50;99.90;;;;;;5076965;28;19908;-69
2023/04/30 13:46:11;;;;;;;;;;;13.60;99.90;;;;;;5077275;28;20265;-69
2023/04/30 13:48:38;;;;;;;;;;;13.50;99.90;;;;;;5077795;28;19916;-69
2023/04/30 13:51:05;;;;;;;;;;;13.50;99.90;;;;;;5075624;28;20387;-68
2023/04/30 13:53:31;;;;;;;;;;;13.40;99.90;;;;;;5077956;28;19908;-68
2023/04/30 13:55:58;;;;;;;;;;;13.40;99.90;;;;;;5076008;28;19908;-68
2023/04/30 13:58:27;;;;;;;;;;;13.40;99.90;;;;;;5078332;28;19915;-67
2023/04/30 14:00:54;;;;;;;;;;;13.40;99.90;;;;;;5074530;28;20636;-68
2023/04/30 14:03:20;;;;;;;;;;;13.40;99.90;;;;;;5078807;28;20315;-69
2023/04/30 14:05:47;;;;;;;;;;;13.30;99.90;;;;;;5076631;28;19909;-69
2023/04/30 14:08:14;;;;;;;;;;;13.40;99.90;;;;;;5076880;28;19908;-69
2023/04/30 14:10:41;;;;;;;;;;;13.30;99.90;;;;;;5077669;28;19919;-69
2023/04/30 14:13:07;;;;;;;;;;;13.30;99.90;;;;;;5074580;28;19915;-68
2023/04/30 14:15:34;;;;;;;;;;;13.30;99.90;;;;;;5078639;28;19959;-69
2023/04/30 14:18:01;;;;;;;;;;;13.10;99.90;;;;;;5074321;28;19908;-70
2023/04/30 14:20:28;;;;;;;;;;;13.20;99.90;;;;;;5077879;28;20296;-68
2023/04/30 14:22:54;;;;;;;;;;;13.20;99.90;;;;;;5075705;28;19915;-69